createdAt,value
2022-09-15T00:01:50.862Z,17.50
2022-09-15T00:11:55.964Z,17.40
2022-09-15T00:21:59.589Z,17.30
2022-09-15T00:32:04.996Z,17.20
2022-09-15T00:42:15.374Z,17.20
2022-09-15T00:52:26.667Z,17.10
2022-09-15T01:02:34.072Z,17.00
2022-09-15T01:12:40.995Z,17.10
2022-09-15T01:23:02.954Z,16.90
2022-09-15T01:33:32.316Z,16.90
2022-09-15T01:43:40.807Z,16.40
2022-09-15T01:53:46.937Z,16.20
2022-09-15T02:03:55.844Z,16.10
2022-09-15T02:14:11.263Z,16.00
2022-09-15T02:24:19.579Z,15.90
2022-09-15T02:34:29.037Z,15.90
2022-09-15T02:44:33.508Z,15.80
2022-09-15T02:54:38.416Z,15.90
2022-09-15T03:04:42.065Z,15.80
2022-09-15T03:14:47.199Z,15.70
2022-09-15T03:24:51.747Z,15.70
2022-09-15T03:34:59.110Z,15.60
2022-09-15T03:45:03.615Z,15.50
2022-09-15T03:55:11.016Z,15.40
2022-09-15T04:05:14.723Z,15.40
2022-09-15T04:15:20.259Z,15.40
2022-09-15T04:25:24.138Z,15.40
2022-09-15T04:35:30.801Z,15.40
2022-09-15T04:45:40.577Z,15.40
2022-09-15T04:55:47.531Z,15.40
2022-09-15T05:05:51.295Z,15.40
2022-09-15T05:15:56.325Z,15.50
2022-09-15T05:26:04.122Z,15.50
2022-09-15T05:36:10.956Z,15.50
2022-09-15T05:46:16.471Z,15.50
2022-09-15T05:56:21.772Z,15.50
2022-09-15T06:06:26.880Z,15.60
2022-09-15T06:16:34.301Z,15.70
2022-09-15T06:26:37.986Z,15.70
2022-09-15T06:36:43.833Z,15.70
2022-09-15T06:46:47.891Z,15.90
2022-09-15T06:56:52.998Z,16.10
2022-09-15T07:06:57.478Z,16.20
2022-09-15T07:17:02.873Z,16.00
2022-09-15T07:27:08.232Z,16.40
2022-09-15T07:37:13.246Z,16.50
2022-09-15T07:47:16.832Z,16.60
2022-09-15T07:57:21.998Z,16.60
2022-09-15T08:07:26.118Z,16.70
2022-09-15T08:17:31.414Z,17.00
2022-09-15T08:27:35.087Z,17.20
2022-09-15T08:37:40.366Z,17.30
2022-09-15T08:47:48.657Z,17.00
2022-09-15T08:57:55.592Z,17.00
2022-09-15T09:08:40.391Z,17.10
2022-09-15T09:19:05.263Z,17.50
2022-09-15T09:29:16.485Z,17.60
2022-09-15T09:39:22.629Z,17.40
2022-09-15T09:49:28.360Z,17.90
2022-09-15T09:59:42.037Z,17.90
2022-09-15T10:09:55.478Z,18.00
2022-09-15T10:20:00.602Z,18.70
2022-09-15T10:30:19.744Z,19.00
2022-09-15T10:40:35.276Z,18.80
2022-09-15T10:50:51.635Z,19.60
2022-09-15T11:01:10.802Z,19.60
2022-09-15T11:11:26.450Z,20.10
2022-09-15T11:21:39.040Z,19.50
2022-09-15T11:31:46.184Z,18.90
2022-09-15T11:41:56.521Z,18.50
2022-09-15T11:52:09.910Z,18.30
2022-09-15T12:02:26.627Z,18.60
2022-09-15T12:12:31.442Z,19.10
2022-09-15T12:22:42.850Z,18.70
2022-09-15T12:32:49.147Z,18.90
2022-09-15T12:42:57.562Z,19.20
2022-09-15T12:53:04.676Z,19.40
2022-09-15T13:03:30.010Z,19.40
2022-09-15T13:13:39.858Z,19.40
2022-09-15T13:23:48.956Z,19.30
2022-09-15T13:45:16.139Z,20.30
2022-09-15T13:55:26.133Z,20.50
2022-09-15T14:05:35.208Z,20.20
2022-09-15T14:15:40.693Z,19.80
2022-09-15T14:25:47.367Z,19.40
2022-09-15T14:35:51.090Z,19.30
2022-09-15T14:46:05.416Z,19.80
2022-09-15T14:56:17.936Z,19.90
2022-09-15T15:06:29.466Z,20.10
2022-09-15T15:16:33.601Z,20.30
2022-09-15T15:26:40.437Z,20.10
2022-09-15T15:36:46.509Z,20.30
2022-09-15T15:46:56.894Z,20.40
2022-09-15T15:57:25.161Z,20.10
2022-09-15T16:07:33.432Z,19.70
2022-09-15T16:17:37.318Z,19.30
2022-09-15T16:27:42.624Z,19.20
2022-09-15T16:37:47.200Z,19.30
2022-09-15T16:47:55.202Z,18.90
2022-09-15T16:57:59.735Z,18.70
2022-09-15T17:08:05.696Z,18.50
2022-09-15T17:18:13.348Z,18.40
2022-09-15T17:28:20.908Z,18.30
2022-09-15T17:38:27.115Z,18.20
2022-09-15T17:48:32.145Z,18.10
2022-09-15T17:58:35.768Z,18.00
2022-09-15T18:08:41.258Z,17.90
2022-09-15T18:18:44.972Z,17.80
2022-09-15T18:28:50.059Z,17.70
2022-09-15T18:38:53.780Z,17.50
2022-09-15T18:48:59.147Z,17.30
2022-09-15T18:59:02.778Z,17.10
2022-09-15T19:09:07.699Z,16.80
2022-09-15T19:19:11.570Z,16.60
2022-09-15T19:29:16.626Z,16.40
2022-09-15T19:39:20.346Z,16.30
2022-09-15T19:49:25.897Z,16.20
2022-09-15T19:59:31.554Z,16.20
2022-09-15T20:09:38.008Z,16.20
2022-09-15T20:19:42.029Z,16.10
2022-09-15T20:29:47.289Z,16.00
2022-09-15T20:39:51.488Z,16.00
2022-09-15T20:49:56.562Z,16.00
2022-09-15T21:00:00.151Z,16.00
2022-09-15T21:10:06.686Z,15.90
2022-09-15T21:20:11.172Z,15.80
2022-09-15T21:30:16.962Z,15.90
2022-09-15T21:40:20.685Z,15.70
2022-09-15T21:50:27.210Z,15.70
2022-09-15T22:00:30.883Z,15.70
2022-09-15T22:10:36.135Z,15.70
2022-09-15T22:20:39.735Z,15.80
2022-09-15T22:30:44.831Z,15.70
2022-09-15T22:40:48.441Z,15.70
2022-09-15T22:50:53.605Z,15.70
2022-09-15T23:01:04.984Z,15.70
2022-09-15T23:11:12.176Z,15.70
2022-09-15T23:21:16.063Z,15.70
2022-09-15T23:31:22.508Z,15.60
2022-09-15T23:41:26.402Z,15.60
2022-09-15T23:51:32.250Z,15.60
